Details From LXGB - LXGB Gibraltar
To LEBA - Cordoba
Flight Number -
Tags decoded
Created
Modified
Stats Distance 2,326 nm / 4,307 km
Max Altitude 0 ft / 0 m
Waypoints 9
Social Downloads 0
Likes 0
Share VATSIM

Download

Looking for another format? Having issues loading an existing format? Contact us
Advertisement - Login to hide

Notes

Requested: LXGB VICTR CHARE BARPA TNG LINTO VJF SVL VULPE LEBA

Route

LXGB VICTR BARPA TNG LINTO VJF SVL VULPE LEBA

ID Type Via Altitude Latitude Longitude Leg Dist Tot Dist Heading (true) Name
O LXGB APT - 0 ft / 0 m 36.15121˚ -5.34966˚ - 0 nm - LXGB Gibraltar
VICTR FIX - 0 ft / 0 m 41.21088˚ 16.52191˚ 1066 nm 1066 nm 67° / 81° -
BARPA FIX - 0 ft / 0 m 35.83333˚ -5.66667˚ 1087 nm 2154 nm 260° / 246° -
TNG VOR - 0 ft / 0 m 35.72889˚ -5.89083˚ 12 nm 2166 nm 240° / 240° TANGER VOR-DME
LINTO FIX - 0 ft / 0 m 35.83333˚ -5.95444˚ 6 nm 2173 nm 334° / 334° -
VJF VOR - 0 ft / 0 m 36.24718˚ -5.97187˚ 24 nm 2198 nm 358° / 358° VEJER VOR-DME
SVL VOR - 0 ft / 0 m 37.42758˚ -5.76222˚ 71 nm 2270 nm 8° / 8° SEVILLA VOR-DME
VULPE FIX - 0 ft / 0 m 37.76122˚ -4.79843˚ 50 nm 2320 nm 66° / 67° -
O LEBA APT - 0 ft / 0 m 37.84315˚ -4.84806˚ 5 nm 2325 nm 334° / 334° Cordoba

Altitude Profile

Advertisement - Login to hide

Weather


0- 5 10 15 20 25 30 35+ Temperature / ° C

Clouds and Precipitation
Forecast for 2017-12-16 18:00 UTC. Updated 2 hours ago

Ground ~20,000 ft ~40,000 ft Winds

LXGB

Details ICAO LXGB (GIB)
Name Gibraltar
Region Gibralter
Timezone Europe/Gibraltar (UTC+1.0)
Stats Elevation 15 ft / 5 m (AMSL)
Location 36.151209° -5.349664°
Runways 1
Magnetic Variation 1.122° W

METAR

LXGB 161650Z 08012KT 9999 FEW028 16/10 Q1019

Decode

TAF

Not found

Departure Runways

ID Width Length Bearing (true) Bearing (mag) Surface Threshold Offset Overrun Length
27 151 ft / 46 m 5,992 ft / 1,826 m 267.56° 268.68° Asphalt 367 ft / 112 m 89 ft / 27 m
9 151 ft / 46 m 5,992 ft / 1,826 m 87.54° 88.66° Asphalt 299 ft / 91 m 52 ft / 16 m

LEBA

Details ICAO LEBA (ODB)
Name Cordoba
Region Spain
Timezone Europe/Madrid (UTC+1.0)
Stats Elevation 296 ft / 90 m (AMSL)
Location 37.843152° -4.848064°
Runways 1
Magnetic Variation 0.991° W

METAR

LEBA 161700Z AUTO 06006KT 9999 NCD 12/01 Q1021

Decode

TAF

Not found

Destination Runways

ID Width Length Bearing (true) Bearing (mag) Surface Threshold Offset Overrun Length
03 197 ft / 60 m 7,224 ft / 2,202 m 28.69° 29.68° Asphalt 0 ft / 0 m 0 ft / 0 m
21 197 ft / 60 m 7,224 ft / 2,202 m 208.70° 209.69° Asphalt 1,939 ft / 591 m 0 ft / 0 m

Popular Alternatives